createdAt,value
2022-08-03T00:01:52.821Z,1.27
2022-08-03T00:04:19.609Z,1.50
2022-08-03T00:06:46.226Z,1.75
2022-08-03T00:09:12.825Z,2.28
2022-08-03T00:11:39.585Z,1.73
2022-08-03T00:14:07.171Z,1.90
2022-08-03T00:16:34.378Z,2.25
2022-08-03T00:19:02.413Z,2.25
2022-08-03T00:21:29.392Z,2.10
2022-08-03T00:23:56.561Z,2.90
2022-08-03T00:26:23.364Z,2.25
2022-08-03T00:28:50.519Z,2.38
2022-08-03T00:31:23.074Z,2.08
2022-08-03T00:34:04.407Z,1.90
2022-08-03T00:36:31.114Z,1.77
2022-08-03T00:38:58.293Z,2.15
2022-08-03T00:41:24.939Z,2.63
2022-08-03T00:43:51.531Z,2.10
2022-08-03T00:46:21.680Z,2.78
2022-08-03T00:48:52.139Z,2.22
2022-08-03T00:51:20.689Z,2.80
2022-08-03T00:53:47.595Z,2.88
2022-08-03T00:56:15.765Z,2.92
2022-08-03T00:58:44.792Z,2.30
2022-08-03T01:01:12.480Z,2.22
2022-08-03T01:03:39.773Z,2.88
2022-08-03T01:06:19.980Z,2.45
2022-08-03T01:08:58.887Z,3.55
2022-08-03T01:11:36.567Z,2.60
2022-08-03T01:14:39.210Z,2.28
2022-08-03T01:17:25.365Z,2.47
2022-08-03T01:20:06.248Z,2.63
2022-08-03T01:23:10.265Z,2.67
2022-08-03T01:26:06.040Z,2.28
2022-08-03T01:29:03.529Z,2.50
2022-08-03T01:33:00.339Z,2.88
2022-08-03T01:34:41.632Z,3.10
2022-08-03T01:37:10.890Z,2.88
2022-08-03T01:39:39.688Z,3.28
2022-08-03T01:42:10.229Z,3.00
2022-08-03T01:44:40.804Z,2.80
2022-08-03T01:47:08.562Z,2.60
2022-08-03T01:49:43.104Z,2.58
2022-08-03T01:52:13.125Z,2.75
2022-08-03T01:54:45.275Z,2.70
2022-08-03T01:57:15.868Z,2.95
2022-08-03T01:59:44.639Z,2.83
2022-08-03T02:02:32.320Z,2.85
2022-08-03T02:05:01.287Z,2.88
2022-08-03T02:07:30.427Z,3.08
2022-08-03T02:09:59.036Z,2.67
2022-08-03T02:12:28.227Z,3.05
2022-08-03T02:14:56.859Z,2.90
2022-08-03T02:17:39.779Z,2.17
2022-08-03T02:20:10.847Z,2.72
2022-08-03T02:22:40.645Z,2.45
2022-08-03T02:25:15.092Z,2.97
2022-08-03T02:28:01.667Z,2.83
2022-08-03T02:30:36.931Z,2.75
2022-08-03T02:33:04.780Z,3.03
2022-08-03T02:35:33.945Z,2.83
2022-08-03T02:38:03.829Z,3.00
2022-08-03T02:40:31.779Z,3.25
2022-08-03T02:43:02.435Z,2.92
2022-08-03T02:45:30.932Z,2.20
2022-08-03T02:48:03.348Z,3.45
2022-08-03T02:50:31.794Z,2.85
2022-08-03T02:52:59.657Z,3.17
2022-08-03T02:55:27.325Z,2.90
2022-08-03T02:57:55.492Z,3.00
2022-08-03T03:00:28.407Z,2.80
2022-08-03T03:02:58.573Z,3.22
2022-08-03T03:05:54.740Z,3.20
2022-08-03T03:08:18.662Z,2.88
2022-08-03T03:10:48.111Z,2.67
2022-08-03T03:13:16.124Z,3.50
2022-08-03T03:15:45.067Z,2.88
2022-08-03T03:18:12.825Z,3.95
2022-08-03T03:20:40.867Z,2.58
2022-08-03T03:23:09.654Z,2.90
2022-08-03T03:25:37.349Z,3.55
2022-08-03T03:28:06.427Z,3.60
2022-08-03T03:30:34.116Z,2.90
2022-08-03T03:33:00.974Z,3.10
2022-08-03T03:35:28.508Z,3.00
2022-08-03T03:37:55.370Z,4.05
2022-08-03T03:40:22.627Z,2.97
2022-08-03T03:42:50.315Z,3.45
2022-08-03T03:45:17.774Z,3.05
2022-08-03T03:47:44.583Z,3.08
2022-08-03T03:50:12.492Z,3.30
2022-08-03T03:52:39.181Z,2.92
2022-08-03T03:55:06.386Z,2.92
2022-08-03T03:57:34.287Z,3.13
2022-08-03T04:00:00.947Z,3.00
2022-08-03T04:02:27.819Z,4.32
2022-08-03T04:05:13.633Z,2.90
2022-08-03T04:08:19.264Z,3.53
2022-08-03T04:11:07.805Z,3.03
2022-08-03T04:14:01.805Z,2.90
2022-08-03T04:16:32.421Z,3.40
2022-08-03T04:19:02.900Z,4.10
2022-08-03T04:21:32.351Z,3.03
2022-08-03T04:24:01.713Z,3.20
2022-08-03T04:26:33.648Z,3.70
2022-08-03T04:29:01.407Z,3.58
2022-08-03T04:31:30.005Z,3.97
2022-08-03T04:33:57.764Z,4.15
2022-08-03T04:36:27.756Z,4.43
2022-08-03T04:39:04.372Z,3.10
2022-08-03T04:41:32.097Z,3.30
2022-08-03T04:44:21.367Z,3.58
2022-08-03T04:46:56.338Z,3.30
2022-08-03T04:49:23.882Z,3.97
2022-08-03T04:51:51.510Z,3.63
2022-08-03T04:54:18.219Z,3.90
2022-08-03T04:56:45.120Z,3.92
2022-08-03T04:59:12.072Z,4.13
2022-08-03T05:01:40.572Z,4.07
2022-08-03T05:04:07.485Z,4.03
2022-08-03T05:06:34.271Z,5.10
2022-08-03T05:09:02.332Z,4.75
2022-08-03T05:11:30.823Z,3.90
2022-08-03T05:13:57.482Z,4.15
2022-08-03T05:16:25.845Z,4.90
2022-08-03T05:18:52.496Z,4.43
2022-08-03T05:21:19.094Z,4.57
2022-08-03T05:23:45.685Z,4.68
2022-08-03T05:26:12.500Z,5.03
2022-08-03T05:28:39.721Z,4.50
2022-08-03T05:31:17.959Z,4.97
2022-08-03T05:33:44.732Z,6.15
2022-08-03T05:36:13.569Z,5.05
2022-08-03T05:38:40.484Z,5.53
2022-08-03T05:41:23.683Z,6.32
2022-08-03T05:43:54.820Z,4.55
2022-08-03T05:46:24.809Z,4.53
2022-08-03T05:48:51.850Z,6.72
2022-08-03T05:51:18.673Z,5.57
2022-08-03T05:53:45.427Z,6.18
2022-08-03T05:56:14.238Z,5.88
2022-08-03T05:58:46.997Z,6.13
2022-08-03T06:01:14.756Z,5.60
2022-08-03T06:03:41.656Z,6.18
2022-08-03T06:06:08.579Z,5.85
2022-08-03T06:08:35.770Z,6.72
2022-08-03T06:11:02.707Z,5.43
2022-08-03T06:13:29.579Z,4.95
2022-08-03T06:15:56.180Z,3.92
2022-08-03T06:18:24.498Z,5.63
2022-08-03T06:20:53.247Z,4.80
2022-08-03T06:23:20.226Z,4.47
2022-08-03T06:28:59.230Z,3.83
2022-08-03T06:31:33.142Z,4.28
2022-08-03T06:34:33.748Z,4.43
2022-08-03T06:36:50.880Z,4.55
2022-08-03T06:39:18.831Z,4.90
2022-08-03T06:41:45.663Z,4.53
2022-08-03T06:44:15.620Z,4.00
2022-08-03T06:46:43.294Z,3.25
2022-08-03T06:49:09.963Z,4.13
2022-08-03T06:52:03.742Z,4.35
2022-08-03T06:54:24.397Z,4.85
2022-08-03T06:56:51.064Z,4.28
2022-08-03T07:00:08.075Z,4.03
2022-08-03T07:02:04.869Z,4.50
2022-08-03T07:04:31.452Z,5.65
2022-08-03T07:06:58.485Z,5.18
2022-08-03T07:09:26.624Z,4.80
2022-08-03T07:14:47.481Z,5.90
2022-08-03T07:17:14.159Z,3.55
2022-08-03T07:19:40.837Z,3.88
2022-08-03T07:22:08.742Z,3.83
2022-08-03T07:24:35.706Z,2.28
2022-08-03T07:27:02.527Z,3.25
2022-08-03T07:29:37.785Z,5.25
2022-08-03T07:32:05.162Z,4.47
2022-08-03T07:34:32.043Z,4.93
2022-08-03T07:36:58.700Z,4.25
2022-08-03T07:39:25.333Z,3.42
2022-08-03T07:41:52.099Z,3.72
2022-08-03T07:44:19.680Z,3.65
2022-08-03T07:46:46.614Z,4.18
2022-08-03T07:52:15.326Z,3.78
2022-08-03T07:54:42.170Z,3.63
2022-08-03T07:57:08.825Z,3.33
2022-08-03T07:59:56.346Z,3.60
2022-08-03T08:05:35.921Z,2.97
2022-08-03T08:08:03.805Z,3.25
2022-08-03T08:10:30.544Z,2.75
2022-08-03T08:12:57.737Z,2.60
2022-08-03T08:15:24.921Z,3.05
2022-08-03T08:17:54.854Z,3.30
2022-08-03T08:20:30.693Z,2.95
2022-08-03T08:23:01.393Z,3.92
2022-08-03T08:25:29.824Z,4.10
2022-08-03T08:28:29.063Z,2.95
2022-08-03T08:30:43.720Z,2.65
2022-08-03T08:33:22.689Z,3.05
2022-08-03T08:35:51.475Z,2.97
2022-08-03T08:38:18.155Z,3.83
2022-08-03T08:40:45.057Z,3.35
2022-08-03T08:43:14.551Z,2.90
2022-08-03T08:45:41.790Z,3.05
2022-08-03T08:48:10.535Z,3.70
2022-08-03T08:50:38.686Z,3.10
2022-08-03T08:53:11.617Z,3.83
2022-08-03T08:55:59.006Z,2.80
2022-08-03T08:58:29.206Z,3.00
2022-08-03T09:00:55.976Z,3.97
2022-08-03T09:03:29.841Z,3.90
2022-08-03T09:06:01.292Z,2.50
2022-08-03T09:08:30.077Z,3.65
2022-08-03T09:10:57.113Z,3.30
2022-08-03T09:13:23.869Z,2.33
2022-08-03T09:16:22.094Z,3.80
2022-08-03T09:18:51.208Z,3.25
2022-08-03T09:21:32.784Z,3.45
2022-08-03T09:24:04.883Z,3.90
2022-08-03T09:26:35.197Z,2.60
2022-08-03T09:34:31.210Z,3.40
2022-08-03T09:36:58.429Z,3.17
2022-08-03T09:39:41.678Z,2.80
2022-08-03T09:42:14.991Z,2.65
2022-08-03T09:44:45.732Z,3.10
2022-08-03T09:47:14.364Z,3.28
2022-08-03T09:49:42.817Z,2.90
2022-08-03T09:52:37.945Z,2.90
2022-08-03T09:56:31.137Z,2.60
2022-08-03T09:58:09.165Z,2.65
2022-08-03T10:00:52.549Z,2.75
2022-08-03T10:03:19.904Z,3.05
2022-08-03T10:05:46.759Z,3.28
2022-08-03T10:08:18.969Z,2.28
2022-08-03T10:10:47.954Z,2.85
2022-08-03T10:13:16.659Z,2.40
2022-08-03T10:16:23.555Z,3.15
2022-08-03T10:18:31.194Z,3.08
2022-08-03T10:21:07.917Z,3.88
2022-08-03T10:23:34.982Z,3.30
2022-08-03T10:26:04.382Z,5.03
2022-08-03T10:28:38.370Z,4.03
2022-08-03T10:31:10.012Z,2.35
2022-08-03T10:33:51.279Z,3.33
2022-08-03T10:36:22.328Z,2.58
2022-08-03T10:38:53.997Z,3.20
2022-08-03T10:41:22.739Z,2.50
2022-08-03T10:43:59.100Z,2.33
2022-08-03T10:46:27.309Z,2.20
2022-08-03T10:48:54.960Z,2.55
2022-08-03T10:51:23.133Z,2.22
2022-08-03T10:53:54.631Z,2.13
2022-08-03T10:56:58.697Z,2.63
2022-08-03T10:59:45.712Z,3.88
2022-08-03T11:02:14.084Z,3.00
2022-08-03T11:04:41.429Z,1.35
2022-08-03T11:07:23.624Z,4.20
2022-08-03T11:09:56.069Z,2.65
2022-08-03T11:12:31.431Z,2.28
2022-08-03T11:15:08.657Z,2.20
2022-08-03T11:17:46.820Z,3.20
2022-08-03T11:20:51.336Z,3.00
2022-08-03T11:24:02.868Z,2.30
2022-08-03T11:26:14.906Z,2.45
2022-08-03T11:28:46.239Z,2.45
2022-08-03T11:31:49.942Z,2.25
2022-08-03T11:34:14.172Z,2.47
2022-08-03T11:37:19.396Z,2.10
2022-08-03T11:39:48.431Z,2.22
2022-08-03T11:42:24.021Z,2.53
2022-08-03T11:44:52.295Z,2.33
2022-08-03T11:47:21.483Z,2.60
2022-08-03T11:49:49.661Z,2.78
2022-08-03T11:52:17.704Z,2.40
2022-08-03T11:54:44.704Z,2.42
2022-08-03T11:57:14.801Z,2.78
2022-08-03T11:59:41.452Z,2.92
2022-08-03T12:02:12.698Z,3.08
2022-08-03T12:05:01.257Z,2.88
2022-08-03T12:08:03.664Z,2.65
2022-08-03T12:10:16.521Z,2.65
2022-08-03T12:12:46.365Z,2.60
2022-08-03T12:15:13.511Z,2.97
2022-08-03T12:17:41.528Z,2.63
2022-08-03T12:20:12.811Z,2.30
2022-08-03T12:22:40.729Z,2.72
2022-08-03T12:25:08.732Z,2.65
2022-08-03T12:27:36.242Z,2.42
2022-08-03T12:30:03.811Z,2.63
2022-08-03T12:32:31.347Z,2.25
2022-08-03T12:35:01.353Z,2.28
2022-08-03T12:37:29.088Z,2.15
2022-08-03T12:40:10.572Z,3.10
2022-08-03T12:42:38.720Z,2.72
2022-08-03T12:45:27.367Z,2.40
2022-08-03T12:47:59.338Z,2.10
2022-08-03T12:50:26.193Z,1.85
2022-08-03T12:52:53.020Z,2.00
2022-08-03T12:55:21.631Z,1.92
2022-08-03T12:57:49.292Z,2.67
2022-08-03T13:00:21.742Z,2.78
2022-08-03T13:03:39.322Z,1.80
2022-08-03T13:06:00.842Z,2.70
2022-08-03T13:08:27.517Z,2.70
2022-08-03T13:10:54.252Z,2.45
2022-08-03T13:13:39.263Z,1.90
2022-08-03T13:16:05.958Z,2.78
2022-08-03T13:18:32.604Z,2.22
2022-08-03T13:21:00.500Z,2.70
2022-08-03T13:23:27.167Z,2.65
2022-08-03T13:25:55.253Z,1.73
2022-08-03T13:28:23.301Z,3.00
2022-08-03T13:30:50.106Z,2.40
2022-08-03T13:33:17.646Z,2.90
2022-08-03T13:35:44.391Z,1.83
2022-08-03T13:38:13.585Z,2.33
2022-08-03T13:40:42.076Z,2.97
2022-08-03T13:43:08.974Z,3.10
2022-08-03T13:45:35.947Z,2.60
2022-08-03T13:48:02.594Z,2.40
2022-08-03T13:50:30.258Z,2.70
2022-08-03T13:52:57.849Z,2.50
2022-08-03T13:55:24.547Z,2.15
2022-08-03T13:58:06.173Z,2.67
2022-08-03T14:00:34.162Z,2.50
2022-08-03T14:03:07.984Z,2.50
2022-08-03T14:05:38.186Z,2.67
2022-08-03T14:08:06.797Z,2.13
2022-08-03T14:10:38.155Z,2.22
2022-08-03T14:13:05.325Z,2.60
2022-08-03T14:15:32.183Z,2.17
2022-08-03T14:18:04.135Z,2.60
2022-08-03T14:20:38.085Z,2.45
2022-08-03T14:23:16.016Z,1.98
2022-08-03T14:25:51.926Z,2.95
2022-08-03T14:28:21.010Z,2.58
2022-08-03T14:30:50.246Z,2.40
2022-08-03T14:33:17.899Z,2.97
2022-08-03T14:35:44.537Z,2.53
2022-08-03T14:38:12.318Z,2.42
2022-08-03T14:40:39.287Z,2.78
2022-08-03T14:43:06.049Z,2.45
2022-08-03T14:45:32.691Z,2.38
2022-08-03T14:50:33.159Z,1.85
2022-08-03T14:50:51.079Z,2.47
2022-08-03T14:53:18.409Z,2.17
2022-08-03T14:55:50.784Z,2.00
2022-08-03T14:58:26.613Z,2.33
2022-08-03T15:00:54.931Z,2.15
2022-08-03T15:03:24.809Z,2.10
2022-08-03T15:05:57.876Z,1.92
2022-08-03T15:08:26.147Z,2.20
2022-08-03T15:10:53.857Z,2.15
2022-08-03T15:13:21.136Z,2.28
2022-08-03T15:15:48.458Z,2.08
2022-08-03T15:18:17.711Z,2.63
2022-08-03T15:20:46.206Z,2.03
2022-08-03T15:23:15.344Z,1.92
2022-08-03T15:26:28.905Z,2.30
2022-08-03T15:28:33.255Z,2.10
2022-08-03T15:31:00.921Z,2.15
2022-08-03T15:33:28.136Z,2.33
2022-08-03T15:35:57.357Z,2.40
2022-08-03T15:38:26.147Z,1.80
2022-08-03T15:40:54.725Z,2.08
2022-08-03T15:43:22.356Z,1.73
2022-08-03T15:45:54.675Z,2.30
2022-08-03T15:48:35.685Z,2.47
2022-08-03T15:51:02.364Z,1.92
2022-08-03T15:53:29.342Z,1.95
2022-08-03T15:55:56.057Z,2.58
2022-08-03T15:59:09.608Z,2.00
2022-08-03T16:01:09.761Z,2.10
2022-08-03T16:03:36.481Z,2.20
2022-08-03T16:06:07.573Z,2.05
2022-08-03T16:08:34.336Z,2.17
2022-08-03T16:11:01.338Z,2.20
2022-08-03T16:14:05.537Z,1.90
2022-08-03T16:16:14.831Z,2.03
2022-08-03T16:18:42.501Z,1.60
2022-08-03T16:21:14.001Z,2.35
2022-08-03T16:23:47.208Z,2.58
2022-08-03T16:26:14.362Z,1.88
2022-08-03T16:28:41.188Z,2.45
2022-08-03T16:31:09.047Z,1.67
2022-08-03T16:33:36.183Z,1.98
2022-08-03T16:36:03.100Z,2.20
2022-08-03T16:38:30.466Z,1.85
2022-08-03T16:40:57.073Z,1.80
2022-08-03T16:43:24.610Z,1.98
2022-08-03T16:45:51.673Z,1.70
2022-08-03T16:48:19.387Z,1.90
2022-08-03T16:50:46.598Z,2.20
2022-08-03T16:53:16.372Z,2.33
2022-08-03T16:55:53.245Z,2.45
2022-08-03T16:58:34.594Z,1.75
2022-08-03T17:01:22.350Z,1.92
2022-08-03T17:04:02.087Z,1.65
2022-08-03T17:06:35.022Z,2.05
2022-08-03T17:09:08.358Z,2.17
2022-08-03T17:11:43.985Z,1.70
2022-08-03T17:14:14.734Z,2.42
2022-08-03T17:16:52.013Z,2.08
2022-08-03T17:19:21.763Z,2.47
2022-08-03T17:22:04.370Z,2.30
2022-08-03T17:24:37.535Z,1.42
2022-08-03T17:28:42.324Z,1.98
2022-08-03T17:30:15.873Z,1.90
2022-08-03T17:32:56.731Z,2.53
2022-08-03T17:35:34.461Z,2.00
2022-08-03T17:38:10.484Z,1.55
2022-08-03T17:40:48.298Z,1.77
2022-08-03T17:44:14.474Z,2.10
2022-08-03T17:46:10.607Z,1.80
2022-08-03T17:48:41.514Z,2.22
2022-08-03T17:51:15.544Z,1.90
2022-08-03T17:53:53.892Z,1.70
2022-08-03T17:56:50.983Z,2.03
2022-08-03T17:59:51.689Z,1.35
2022-08-03T18:03:03.471Z,1.85
2022-08-03T18:06:12.073Z,1.55
2022-08-03T18:08:27.660Z,2.00
2022-08-03T18:11:03.359Z,2.00
2022-08-03T18:13:58.112Z,1.85
2022-08-03T18:16:33.215Z,2.20
2022-08-03T18:22:02.782Z,1.67
2022-08-03T18:24:31.139Z,2.28
2022-08-03T18:27:00.100Z,1.63
2022-08-03T18:29:30.862Z,2.15
2022-08-03T18:32:06.086Z,2.03
2022-08-03T18:34:36.440Z,2.17
2022-08-03T18:37:08.432Z,1.65
2022-08-03T18:42:26.375Z,2.15
2022-08-03T18:44:56.334Z,1.75
2022-08-03T18:47:51.492Z,1.90
2022-08-03T18:50:30.840Z,1.80
2022-08-03T18:53:15.763Z,2.05
2022-08-03T18:56:02.830Z,1.65
2022-08-03T18:58:53.120Z,1.60
2022-08-03T19:01:59.845Z,2.03
2022-08-03T19:04:34.626Z,2.05
2022-08-03T19:07:06.983Z,1.52
2022-08-03T19:09:40.907Z,1.63
2022-08-03T19:12:49.968Z,1.50
2022-08-03T19:15:36.970Z,1.88
2022-08-03T19:18:11.138Z,1.38
2022-08-03T19:20:41.307Z,1.80
2022-08-03T19:23:15.700Z,1.50
2022-08-03T19:25:42.650Z,1.60
2022-08-03T19:28:09.543Z,1.58
2022-08-03T19:30:40.552Z,2.10
2022-08-03T19:33:15.148Z,2.03
2022-08-03T19:35:54.784Z,2.13
2022-08-03T19:38:29.185Z,1.98
2022-08-03T19:41:03.656Z,2.20
2022-08-03T19:43:53.358Z,1.92
2022-08-03T19:46:22.212Z,1.80
2022-08-03T19:49:14.670Z,1.80
2022-08-03T19:52:01.026Z,1.60
2022-08-03T19:54:45.674Z,1.90
2022-08-03T19:57:28.703Z,1.83
2022-08-03T19:59:56.978Z,1.58
2022-08-03T20:02:26.293Z,2.08
2022-08-03T20:04:59.981Z,1.95
2022-08-03T20:07:47.605Z,1.52
2022-08-03T20:10:16.686Z,1.48
2022-08-03T20:15:41.853Z,1.70
2022-08-03T20:18:16.866Z,1.60
2022-08-03T20:20:50.479Z,2.35
2022-08-03T20:23:20.209Z,2.10
2022-08-03T20:25:58.252Z,1.85
2022-08-03T20:28:29.055Z,2.08
2022-08-03T20:30:56.407Z,1.80
2022-08-03T20:33:27.599Z,1.70
2022-08-03T20:36:01.320Z,1.90
2022-08-03T20:38:27.965Z,2.10
2022-08-03T20:40:56.394Z,1.83
2022-08-03T20:43:26.206Z,2.00
2022-08-03T20:45:59.826Z,1.95
2022-08-03T20:48:42.901Z,1.83
2022-08-03T20:51:20.009Z,2.40
2022-08-03T20:54:09.667Z,2.13
2022-08-03T20:56:52.257Z,2.00
2022-08-03T20:59:19.722Z,1.85
2022-08-03T21:01:47.093Z,2.13
2022-08-03T21:04:13.927Z,2.00
2022-08-03T21:06:55.880Z,1.75
2022-08-03T21:09:39.803Z,2.55
2022-08-03T21:12:11.720Z,1.63
2022-08-03T21:12:57.500Z,1.65
2022-08-03T21:12:58.867Z,1.90
2022-08-03T21:16:02.559Z,1.83
2022-08-03T21:18:00.858Z,1.90
2022-08-03T21:20:32.647Z,1.65
2022-08-03T21:23:00.619Z,2.03
2022-08-03T21:25:32.249Z,2.03
2022-08-03T21:28:00.245Z,2.00
2022-08-03T21:30:29.507Z,1.95
2022-08-03T21:35:44.960Z,2.20
2022-08-03T21:38:20.914Z,2.10
2022-08-03T21:40:56.915Z,2.08
2022-08-03T21:43:23.605Z,2.72
2022-08-03T21:45:57.665Z,2.42
2022-08-03T21:48:26.562Z,2.45
2022-08-03T21:50:54.271Z,2.38
2022-08-03T21:53:22.437Z,2.22
2022-08-03T21:55:52.848Z,2.45
2022-08-03T21:58:30.736Z,2.33
2022-08-03T22:00:59.305Z,2.28
2022-08-03T22:03:26.558Z,2.35
2022-08-03T22:06:02.408Z,2.33
2022-08-03T22:08:34.382Z,2.25
2022-08-03T22:11:04.283Z,2.10
2022-08-03T22:13:44.285Z,2.42
2022-08-03T22:16:13.246Z,1.88
2022-08-03T22:18:41.802Z,2.75
2022-08-03T22:21:12.515Z,2.05
2022-08-03T22:23:42.172Z,2.47
2022-08-03T22:26:34.679Z,2.22
2022-08-03T22:29:07.295Z,1.85
2022-08-03T22:31:58.028Z,2.30
2022-08-03T22:34:26.318Z,2.22
2022-08-03T22:36:56.592Z,2.25
2022-08-03T22:39:29.225Z,2.10
2022-08-03T22:41:59.051Z,2.13
2022-08-03T22:44:29.722Z,2.00
2022-08-03T22:46:56.709Z,2.63
2022-08-03T22:49:24.079Z,2.13
2022-08-03T22:51:54.122Z,2.17
2022-08-03T22:54:21.248Z,2.13
2022-08-03T22:59:41.200Z,2.03
2022-08-03T23:02:21.306Z,2.63
2022-08-03T23:05:02.723Z,2.35
2022-08-03T23:07:39.730Z,2.50
2022-08-03T23:10:11.563Z,2.45
2022-08-03T23:12:39.891Z,2.38
2022-08-03T23:15:09.244Z,2.97
2022-08-03T23:17:57.500Z,2.05
2022-08-03T23:20:26.639Z,2.22
2022-08-03T23:22:54.555Z,1.88
2022-08-03T23:25:22.016Z,2.50
2022-08-03T23:28:05.475Z,2.38
2022-08-03T23:30:34.595Z,2.53
2022-08-03T23:33:02.907Z,2.40
2022-08-03T23:36:29.157Z,1.80
2022-08-03T23:38:36.753Z,2.10
2022-08-03T23:41:04.783Z,2.33
2022-08-03T23:43:44.992Z,2.08
2022-08-03T23:46:22.076Z,2.53
2022-08-03T23:48:49.384Z,2.05
2022-08-03T23:51:44.406Z,2.10
2022-08-03T23:54:33.449Z,2.58
2022-08-03T23:57:18.474Z,2.67
